createdAt,value
2022-10-18T00:00:45.680Z,102307.94
2022-10-18T00:03:12.385Z,102305.91
2022-10-18T00:05:39.331Z,102312.81
2022-10-18T00:08:06.033Z,102309.88
2022-10-18T00:10:32.751Z,102309.94
2022-10-18T00:12:59.377Z,102304.19
2022-10-18T00:15:29.168Z,102299.56
2022-10-18T00:17:56.226Z,102290.94
2022-10-18T00:20:22.984Z,102302.69
2022-10-18T00:22:49.604Z,102298.00
2022-10-18T00:25:17.535Z,102294.31
2022-10-18T00:27:44.916Z,102297.47
2022-10-18T00:30:13.147Z,102291.94
2022-10-18T00:32:44.101Z,102287.97
2022-10-18T00:35:10.692Z,102290.53
2022-10-18T00:37:37.523Z,102287.22
2022-10-18T00:40:07.788Z,102284.94
2022-10-18T00:42:38.008Z,102274.19
2022-10-18T00:45:37.127Z,102278.53
2022-10-18T00:48:11.033Z,102278.88
2022-10-18T00:50:37.625Z,102278.72
2022-10-18T00:53:10.169Z,102280.06
2022-10-18T00:55:36.989Z,102275.13
2022-10-18T00:58:05.252Z,102273.44
2022-10-18T01:00:32.258Z,102267.38
2022-10-18T01:03:03.787Z,102273.91
2022-10-18T01:05:33.113Z,102268.97
2022-10-18T01:08:36.679Z,102268.13
2022-10-18T01:11:09.062Z,102262.41
2022-10-18T01:13:55.052Z,102257.53
2022-10-18T01:16:38.131Z,102266.47
2022-10-18T01:19:29.339Z,102261.41
2022-10-18T01:22:19.212Z,102249.91
2022-10-18T01:25:10.578Z,102255.63
2022-10-18T01:27:45.411Z,102243.13
2022-10-18T01:30:30.331Z,102244.56
2022-10-18T01:33:11.571Z,102247.81
2022-10-18T01:35:44.562Z,102238.50
2022-10-18T01:38:18.003Z,102243.47
2022-10-18T01:40:48.061Z,102237.66
2022-10-18T01:43:20.151Z,102243.66
2022-10-18T01:45:47.504Z,102244.75
2022-10-18T01:48:17.806Z,102243.28
2022-10-18T01:50:45.650Z,102247.53
2022-10-18T01:53:31.538Z,102237.59
2022-10-18T01:56:27.487Z,102250.81
2022-10-18T01:59:21.954Z,102239.25
2022-10-18T02:02:07.025Z,102239.06
2022-10-18T02:04:52.753Z,102241.06
2022-10-18T02:07:35.109Z,102244.03
2022-10-18T02:12:46.926Z,102239.31
2022-10-18T02:15:18.949Z,102238.41
2022-10-18T02:17:49.233Z,102232.66
2022-10-18T02:20:19.961Z,102233.00
2022-10-18T02:22:49.551Z,102236.69
2022-10-18T02:25:23.920Z,102233.00
2022-10-18T02:27:51.145Z,102232.66
2022-10-18T02:30:18.157Z,102232.34
2022-10-18T02:32:52.548Z,102232.34
2022-10-18T02:35:37.570Z,102225.53
2022-10-18T02:38:07.198Z,102225.06
2022-10-18T02:40:33.909Z,102225.19
2022-10-18T02:43:00.426Z,102220.38
2022-10-18T02:45:31.867Z,102222.56
2022-10-18T02:48:04.424Z,102223.22
2022-10-18T02:50:30.994Z,102226.47
2022-10-18T02:53:00.227Z,102218.72
2022-10-18T02:57:58.381Z,102219.72
2022-10-18T03:00:24.907Z,102224.72
2022-10-18T03:02:54.957Z,102233.41
2022-10-18T03:05:21.486Z,102224.16
2022-10-18T03:07:56.806Z,102222.13
2022-10-18T03:10:30.402Z,102223.41
2022-10-18T03:12:56.886Z,102228.38
2022-10-18T03:15:26.721Z,102221.50
2022-10-18T03:17:53.212Z,102218.47
2022-10-18T03:20:19.929Z,102224.72
2022-10-18T03:22:46.623Z,102216.16
2022-10-18T03:25:13.113Z,102219.25
2022-10-18T03:27:39.662Z,102219.25
2022-10-18T03:30:06.869Z,102220.75
2022-10-18T03:32:33.625Z,102211.91
2022-10-18T03:35:00.307Z,102214.84
2022-10-18T03:37:26.827Z,102217.44
2022-10-18T03:39:53.319Z,102221.41
2022-10-18T03:42:19.807Z,102218.34
2022-10-18T03:44:46.291Z,102219.91
2022-10-18T03:47:14.879Z,102219.16
2022-10-18T03:49:41.343Z,102217.50
2022-10-18T03:52:07.903Z,102214.50
2022-10-18T03:54:34.433Z,102215.16
2022-10-18T03:57:01.074Z,102214.84
2022-10-18T03:59:30.572Z,102214.50
2022-10-18T04:02:06.107Z,102220.34
2022-10-18T04:04:32.767Z,102214.31
2022-10-18T04:06:59.418Z,102206.13
2022-10-18T04:09:26.519Z,102216.78
2022-10-18T04:11:53.515Z,102213.50
2022-10-18T04:14:25.096Z,102214.22
2022-10-18T04:16:51.852Z,102211.44
2022-10-18T04:19:18.470Z,102219.44
2022-10-18T04:21:45.180Z,102213.09
2022-10-18T04:24:13.618Z,102211.00
2022-10-18T04:26:40.180Z,102207.59
2022-10-18T04:29:06.928Z,102206.94
2022-10-18T04:31:37.566Z,102202.53
2022-10-18T04:34:04.487Z,102196.19
2022-10-18T04:36:31.971Z,102202.72
2022-10-18T04:38:58.504Z,102203.66
2022-10-18T04:41:26.988Z,102200.25
2022-10-18T04:43:53.645Z,102197.75
2022-10-18T04:46:20.317Z,102194.75
2022-10-18T04:48:46.908Z,102196.75
2022-10-18T04:51:13.562Z,102202.16
2022-10-18T04:53:40.107Z,102198.84
2022-10-18T04:56:07.345Z,102202.59
2022-10-18T04:58:38.117Z,102198.41
2022-10-18T05:01:09.833Z,102198.00
2022-10-18T05:03:36.374Z,102196.34
2022-10-18T05:06:03.690Z,102198.56
2022-10-18T05:08:34.344Z,102191.22
2022-10-18T05:11:01.663Z,102197.34
2022-10-18T05:13:28.436Z,102187.09
2022-10-18T05:15:55.482Z,102188.19
2022-10-18T05:18:23.224Z,102196.44
2022-10-18T05:20:49.775Z,102187.84
2022-10-18T05:23:16.304Z,102189.19
2022-10-18T05:25:43.607Z,102194.06
2022-10-18T05:28:21.079Z,102189.66
2022-10-18T05:31:07.780Z,102188.09
2022-10-18T05:33:34.623Z,102185.34
2022-10-18T05:36:01.511Z,102192.06
2022-10-18T05:38:30.976Z,102191.88
2022-10-18T05:40:58.761Z,102187.44
2022-10-18T05:43:29.016Z,102195.06
2022-10-18T05:45:55.885Z,102187.81
2022-10-18T05:48:22.655Z,102183.84
2022-10-18T05:50:49.218Z,102193.28
2022-10-18T05:53:35.120Z,102192.09
2022-10-18T05:56:03.270Z,102197.88
2022-10-18T05:58:29.788Z,102201.84
2022-10-18T06:01:01.695Z,102194.50
2022-10-18T06:03:31.504Z,102201.97
2022-10-18T06:06:02.696Z,102195.91
2022-10-18T06:08:30.093Z,102201.88
2022-10-18T06:10:59.479Z,102205.66
2022-10-18T06:13:26.294Z,102205.34
2022-10-18T06:15:57.478Z,102204.16
2022-10-18T06:18:24.054Z,102214.81
2022-10-18T06:20:56.747Z,102205.84
2022-10-18T06:23:23.222Z,102209.97
2022-10-18T06:25:52.408Z,102203.91
2022-10-18T06:28:18.927Z,102211.81
2022-10-18T06:30:45.567Z,102214.94
2022-10-18T06:33:12.059Z,102216.06
2022-10-18T06:35:38.560Z,102221.00
2022-10-18T06:38:06.304Z,102222.59
2022-10-18T06:40:37.932Z,102225.53
2022-10-18T06:43:20.470Z,102222.56
2022-10-18T06:45:48.931Z,102233.81
2022-10-18T06:48:15.649Z,102232.44
2022-10-18T06:50:42.279Z,102232.34
2022-10-18T06:53:09.102Z,102229.53
2022-10-18T06:55:36.081Z,102239.38
2022-10-18T06:58:02.832Z,102235.28
2022-10-18T07:00:29.505Z,102238.69
2022-10-18T07:02:57.219Z,102237.56
2022-10-18T07:05:23.957Z,102238.06
2022-10-18T07:07:54.230Z,102236.94
2022-10-18T07:10:23.928Z,102246.09
2022-10-18T07:12:53.508Z,102239.03
2022-10-18T07:15:24.151Z,102236.53
2022-10-18T07:17:50.825Z,102242.16
2022-10-18T07:20:17.557Z,102239.19
2022-10-18T07:22:44.067Z,102241.25
2022-10-18T07:25:10.599Z,102243.63
2022-10-18T07:27:38.719Z,102244.69
2022-10-18T07:30:09.918Z,102243.66
2022-10-18T07:32:37.219Z,102245.56
2022-10-18T07:35:04.040Z,102246.00
2022-10-18T07:37:30.596Z,102243.13
2022-10-18T07:39:57.077Z,102242.13
2022-10-18T07:42:23.703Z,102245.09
2022-10-18T07:44:50.655Z,102243.06
2022-10-18T07:47:17.389Z,102237.69
2022-10-18T07:49:44.056Z,102241.41
2022-10-18T07:52:11.523Z,102239.34
2022-10-18T07:54:38.182Z,102239.94
2022-10-18T07:57:05.131Z,102239.16
2022-10-18T07:59:31.746Z,102242.25
2022-10-18T08:01:58.420Z,102243.06
2022-10-18T08:04:25.364Z,102249.47
2022-10-18T08:06:52.151Z,102243.91
2022-10-18T08:09:18.793Z,102246.78
2022-10-18T08:11:45.585Z,102241.00
2022-10-18T08:14:13.283Z,102245.28
2022-10-18T08:16:42.606Z,102240.38
2022-10-18T08:19:11.697Z,102241.19
2022-10-18T08:21:38.303Z,102242.63
2022-10-18T08:24:05.384Z,102235.59
2022-10-18T08:26:32.493Z,102240.13
2022-10-18T08:29:17.944Z,102238.91
2022-10-18T08:31:50.985Z,102246.56
2022-10-18T08:34:19.875Z,102243.88
2022-10-18T08:36:46.909Z,102236.88
2022-10-18T08:39:13.483Z,102239.78
2022-10-18T08:42:16.876Z,102245.13
2022-10-18T08:44:54.602Z,102248.22
2022-10-18T08:47:27.255Z,102236.03
2022-10-18T08:50:14.029Z,102246.16
2022-10-18T08:53:10.635Z,102241.00
2022-10-18T08:55:43.046Z,102234.81
2022-10-18T08:58:30.774Z,102246.75
2022-10-18T09:01:31.479Z,102231.72
2022-10-18T09:04:41.834Z,102233.16
2022-10-18T09:07:31.424Z,102226.16
2022-10-18T09:10:06.935Z,102230.69
2022-10-18T09:13:05.106Z,102222.47
2022-10-18T09:15:46.905Z,102217.13
2022-10-18T09:18:54.162Z,102218.31
2022-10-18T09:21:29.514Z,102220.38
2022-10-18T09:24:18.274Z,102211.53
2022-10-18T09:26:47.992Z,102212.72
2022-10-18T09:29:26.768Z,102204.69
2022-10-18T09:32:11.271Z,102206.47
2022-10-18T09:34:47.635Z,102210.09
2022-10-18T09:37:20.904Z,102202.44
2022-10-18T09:39:50.518Z,102203.16
2022-10-18T09:42:38.043Z,102200.34
2022-10-18T09:45:22.344Z,102198.69
2022-10-18T09:47:54.190Z,102197.25
2022-10-18T09:50:24.243Z,102195.03
2022-10-18T09:53:07.003Z,102195.63
2022-10-18T09:55:39.840Z,102192.16
2022-10-18T09:58:10.328Z,102194.50
2022-10-18T10:00:48.100Z,102187.72
2022-10-18T10:03:15.727Z,102187.31
2022-10-18T10:05:43.675Z,102177.81
2022-10-18T10:08:11.154Z,102180.75
2022-10-18T10:10:47.091Z,102184.78
2022-10-18T10:13:26.174Z,102181.88
2022-10-18T10:15:56.565Z,102181.78
2022-10-18T10:18:34.325Z,102184.16
2022-10-18T10:21:05.696Z,102178.97
2022-10-18T10:23:45.821Z,102178.41
2022-10-18T10:26:29.177Z,102172.34
2022-10-18T10:28:55.800Z,102173.47
2022-10-18T10:31:25.366Z,102177.41
2022-10-18T10:34:04.816Z,102174.34
2022-10-18T10:36:33.575Z,102161.41
2022-10-18T10:39:18.687Z,102156.34
2022-10-18T10:42:00.703Z,102156.25
2022-10-18T10:44:34.165Z,102156.13
2022-10-18T10:47:03.126Z,102144.56
2022-10-18T10:49:41.268Z,102153.59
2022-10-18T10:52:27.231Z,102149.28
2022-10-18T10:55:22.990Z,102134.13
2022-10-18T10:57:49.994Z,102138.63
2022-10-18T11:00:36.454Z,102129.53
2022-10-18T11:03:33.752Z,102132.28
2022-10-18T11:06:01.818Z,102127.88
2022-10-18T11:08:35.787Z,102116.78
2022-10-18T11:11:22.225Z,102116.16
2022-10-18T11:14:07.327Z,102111.19
2022-10-18T11:16:54.537Z,102107.34
2022-10-18T11:19:34.298Z,102103.44
2022-10-18T11:22:02.644Z,102095.97
2022-10-18T11:24:29.379Z,102088.88
2022-10-18T11:27:05.787Z,102084.63
2022-10-18T11:29:55.500Z,102082.34
2022-10-18T11:32:55.684Z,102080.16
2022-10-18T11:35:56.165Z,102071.38
2022-10-18T11:39:03.173Z,102063.97
2022-10-18T11:41:44.371Z,102060.84
2022-10-18T11:44:32.034Z,102055.47
2022-10-18T11:47:27.364Z,102051.25
2022-10-18T11:50:01.450Z,102038.81
2022-10-18T11:52:49.101Z,102037.81
2022-10-18T11:55:48.400Z,102031.81
2022-10-18T11:58:34.988Z,102028.69
2022-10-18T12:01:13.691Z,102016.56
2022-10-18T12:04:08.986Z,102009.06
2022-10-18T12:06:43.523Z,102014.53
2022-10-18T12:09:32.880Z,102008.97
2022-10-18T12:12:17.104Z,102008.63
2022-10-18T12:14:51.177Z,102003.69
2022-10-18T12:17:49.815Z,101996.91
2022-10-18T12:20:26.223Z,101996.66
2022-10-18T12:22:59.692Z,101993.16
2022-10-18T12:25:28.794Z,101987.75
2022-10-18T12:30:53.557Z,101974.00
2022-10-18T12:33:28.375Z,101973.47
2022-10-18T12:36:15.545Z,101969.97
2022-10-18T12:38:46.169Z,101958.44
2022-10-18T12:41:30.401Z,101954.44
2022-10-18T12:44:05.172Z,101946.47
2022-10-18T12:46:54.036Z,101945.00
2022-10-18T12:49:23.652Z,101946.59
2022-10-18T12:51:59.630Z,101944.41
2022-10-18T12:54:36.042Z,101934.56
2022-10-18T12:57:05.577Z,101928.69
2022-10-18T12:59:31.956Z,101921.63
2022-10-18T13:02:20.554Z,101918.13
2022-10-18T13:04:48.293Z,101910.78
2022-10-18T13:07:21.837Z,101917.56
2022-10-18T13:10:10.039Z,101913.91
2022-10-18T13:12:50.569Z,101908.84
2022-10-18T13:15:36.181Z,101909.03
2022-10-18T13:18:18.948Z,101911.09
2022-10-18T13:21:08.352Z,101909.16
2022-10-18T13:23:57.626Z,101904.81
2022-10-18T13:26:34.226Z,101895.91
2022-10-18T13:29:06.136Z,101896.47
2022-10-18T13:31:45.507Z,101896.84
2022-10-18T13:34:29.829Z,101888.59
2022-10-18T13:37:14.084Z,101894.34
2022-10-18T13:39:40.867Z,101885.56
2022-10-18T13:42:29.560Z,101879.66
2022-10-18T13:45:45.604Z,101883.03
2022-10-18T13:48:30.282Z,101878.03
2022-10-18T13:51:17.511Z,101877.50
2022-10-18T13:54:01.912Z,101880.56
2022-10-18T13:56:53.175Z,101881.00
2022-10-18T14:00:03.253Z,101875.72
2022-10-18T14:03:31.718Z,101875.72
2022-10-18T14:06:08.778Z,101869.28
2022-10-18T14:08:41.975Z,101874.66
2022-10-18T14:11:47.390Z,101865.41
2022-10-18T14:14:43.961Z,101866.66
2022-10-18T14:17:25.825Z,101867.59
2022-10-18T14:20:10.908Z,101857.25
2022-10-18T14:22:47.720Z,101865.19
2022-10-18T14:25:35.894Z,101860.97
2022-10-18T14:28:13.651Z,101866.72
2022-10-18T14:30:56.614Z,101858.03
2022-10-18T14:33:48.015Z,101858.34
2022-10-18T14:36:22.050Z,101857.63
2022-10-18T14:38:53.273Z,101853.72
2022-10-18T14:41:31.261Z,101855.38
2022-10-18T14:44:24.063Z,101853.50
2022-10-18T14:47:20.646Z,101850.91
2022-10-18T14:49:47.795Z,101842.25
2022-10-18T14:52:36.309Z,101839.34
2022-10-18T14:55:03.758Z,101841.63
2022-10-18T14:57:36.505Z,101832.63
2022-10-18T15:00:09.306Z,101834.31
2022-10-18T15:02:43.870Z,101832.13
2022-10-18T15:05:28.608Z,101830.75
2022-10-18T15:07:59.579Z,101834.69
2022-10-18T15:10:33.568Z,101821.22
2022-10-18T15:13:11.122Z,101824.81
2022-10-18T15:15:47.760Z,101823.13
2022-10-18T15:18:26.635Z,101823.44
2022-10-18T15:21:24.074Z,101824.88
2022-10-18T15:23:51.785Z,101825.78
2022-10-18T15:26:26.730Z,101821.81
2022-10-18T15:28:56.591Z,101820.63
2022-10-18T15:31:31.503Z,101822.13
2022-10-18T15:34:22.688Z,101823.13
2022-10-18T15:36:51.451Z,101817.25
2022-10-18T15:39:21.064Z,101820.91
2022-10-18T15:41:55.762Z,101824.09
2022-10-18T15:44:32.337Z,101830.50
2022-10-18T15:47:20.201Z,101819.22
2022-10-18T15:49:46.661Z,101810.00
2022-10-18T15:52:38.831Z,101817.59
2022-10-18T15:55:30.627Z,101817.72
2022-10-18T15:58:19.003Z,101811.38
2022-10-18T16:00:47.171Z,101809.97
2022-10-18T16:03:14.842Z,101812.88
2022-10-18T16:05:41.740Z,101807.31
2022-10-18T16:08:22.407Z,101804.94
2022-10-18T16:10:52.186Z,101807.09
2022-10-18T16:13:19.654Z,101807.75
2022-10-18T16:15:50.713Z,101805.53
2022-10-18T16:18:20.224Z,101807.22
2022-10-18T16:20:48.712Z,101811.63
2022-10-18T16:23:38.830Z,101806.31
2022-10-18T16:26:05.744Z,101808.59
2022-10-18T16:28:32.481Z,101809.28
2022-10-18T16:31:03.310Z,101808.91
2022-10-18T16:33:31.278Z,101812.84
2022-10-18T16:35:58.630Z,101807.31
2022-10-18T16:38:35.237Z,101810.66
2022-10-18T16:41:11.572Z,101808.66
2022-10-18T16:43:39.607Z,101818.97
2022-10-18T16:46:21.743Z,101807.03
2022-10-18T16:48:55.896Z,101819.81
2022-10-18T16:51:26.041Z,101818.59
2022-10-18T16:53:56.282Z,101827.53
2022-10-18T16:56:31.654Z,101824.69
2022-10-18T16:59:04.776Z,101827.16
2022-10-18T17:01:32.357Z,101831.13
2022-10-18T17:04:06.223Z,101829.06
2022-10-18T17:06:35.908Z,101830.72
2022-10-18T17:09:23.605Z,101824.16
2022-10-18T17:11:50.219Z,101835.31
2022-10-18T17:14:16.809Z,101828.50
2022-10-18T17:16:45.423Z,101829.78
2022-10-18T17:19:22.247Z,101835.34
2022-10-18T17:21:48.742Z,101839.06
2022-10-18T17:24:15.254Z,101838.06
2022-10-18T17:26:41.775Z,101836.03
2022-10-18T17:29:11.689Z,101835.44
2022-10-18T17:31:38.315Z,101841.63
2022-10-18T17:34:05.167Z,101837.06
2022-10-18T17:36:33.132Z,101838.13
2022-10-18T17:38:59.679Z,101842.94
2022-10-18T17:41:26.215Z,101839.59
2022-10-18T17:43:52.898Z,101839.03
2022-10-18T17:46:20.279Z,101839.66
2022-10-18T17:48:46.941Z,101837.38
2022-10-18T17:51:20.773Z,101833.03
2022-10-18T17:53:50.125Z,101840.69
2022-10-18T17:56:24.402Z,101835.97
2022-10-18T17:58:56.661Z,101835.97
2022-10-18T18:01:24.336Z,101837.19
2022-10-18T18:03:56.147Z,101842.56
2022-10-18T18:06:34.663Z,101841.75
2022-10-18T18:09:07.405Z,101846.47
2022-10-18T18:11:35.877Z,101843.59
2022-10-18T18:14:09.722Z,101841.78
2022-10-18T18:16:38.901Z,101847.16
2022-10-18T18:19:09.532Z,101844.72
2022-10-18T18:21:37.577Z,101844.88
2022-10-18T18:24:04.452Z,101841.19
2022-10-18T18:26:32.805Z,101849.41
2022-10-18T18:29:00.116Z,101846.78
2022-10-18T18:31:34.344Z,101850.50
2022-10-18T18:34:05.246Z,101844.72
2022-10-18T18:36:35.152Z,101846.16
2022-10-18T18:39:02.216Z,101837.53
2022-10-18T18:41:32.345Z,101840.00
2022-10-18T18:44:02.225Z,101841.06
2022-10-18T18:46:30.555Z,101843.13
2022-10-18T18:48:58.424Z,101834.47
2022-10-18T18:51:25.912Z,101839.00
2022-10-18T18:53:57.695Z,101834.47
2022-10-18T18:56:26.570Z,101840.22
2022-10-18T18:58:59.722Z,101841.25
2022-10-18T19:01:29.806Z,101832.63
2022-10-18T19:03:58.125Z,101837.38
2022-10-18T19:06:34.594Z,101829.94
2022-10-18T19:09:03.846Z,101839.63
2022-10-18T19:11:39.613Z,101830.34
2022-10-18T19:14:08.225Z,101831.56
2022-10-18T19:16:46.975Z,101829.94
2022-10-18T19:19:16.747Z,101826.25
2022-10-18T19:21:55.441Z,101838.19
2022-10-18T19:24:29.197Z,101841.06
2022-10-18T19:27:04.971Z,101843.94
2022-10-18T19:29:34.662Z,101839.41
2022-10-18T19:32:04.317Z,101843.94
2022-10-18T19:34:32.884Z,101843.94
2022-10-18T19:36:59.647Z,101846.19
2022-10-18T19:39:31.597Z,101839.00
2022-10-18T19:42:03.084Z,101845.75
2022-10-18T19:44:34.982Z,101845.16
2022-10-18T19:47:01.775Z,101841.66
2022-10-18T19:49:28.835Z,101845.56
2022-10-18T19:51:57.355Z,101844.97
2022-10-18T19:54:25.913Z,101847.84
2022-10-18T19:56:58.541Z,101843.91
2022-10-18T19:59:31.656Z,101845.34
2022-10-18T20:02:01.197Z,101842.69
2022-10-18T20:04:27.979Z,101846.38
2022-10-18T20:06:57.434Z,101843.69
2022-10-18T20:09:24.863Z,101847.41
2022-10-18T20:11:55.033Z,101856.03
2022-10-18T20:14:27.523Z,101855.81
2022-10-18T20:16:54.496Z,101858.91
2022-10-18T20:19:21.552Z,101854.16
2022-10-18T20:21:48.643Z,101847.97
2022-10-18T20:24:15.619Z,101845.53
2022-10-18T20:26:46.876Z,101852.34
2022-10-18T20:29:13.610Z,101848.03
2022-10-18T20:31:41.020Z,101855.41
2022-10-18T20:34:12.053Z,101857.88
2022-10-18T20:36:40.530Z,101852.94
2022-10-18T20:39:16.955Z,101854.34
2022-10-18T20:41:43.647Z,101855.41
2022-10-18T20:44:16.727Z,101856.63
2022-10-18T20:46:44.111Z,101856.41
2022-10-18T20:49:14.598Z,101854.13
2022-10-18T20:51:41.651Z,101846.75
2022-10-18T20:54:08.506Z,101848.41
2022-10-18T20:56:37.847Z,101846.31
2022-10-18T20:59:06.332Z,101851.47
2022-10-18T21:01:35.073Z,101849.59
2022-10-18T21:04:04.451Z,101854.75
2022-10-18T21:06:38.500Z,101850.84
2022-10-18T21:09:11.185Z,101851.06
2022-10-18T21:11:46.701Z,101845.09
2022-10-18T21:14:16.175Z,101852.66
2022-10-18T21:16:43.841Z,101848.34
2022-10-18T21:19:23.002Z,101852.47
2022-10-18T21:21:52.370Z,101848.16
2022-10-18T21:24:23.358Z,101839.28
2022-10-18T21:26:50.404Z,101847.50
2022-10-18T21:29:27.324Z,101836.63
2022-10-18T21:31:56.268Z,101841.31
2022-10-18T21:34:22.958Z,101831.47
2022-10-18T21:36:49.767Z,101831.03
2022-10-18T21:39:20.254Z,101830.16
2022-10-18T21:41:47.318Z,101830.34
2022-10-18T21:44:19.689Z,101830.75
2022-10-18T21:46:49.465Z,101835.91
2022-10-18T21:49:16.214Z,101829.53
2022-10-18T21:51:43.214Z,101821.53
2022-10-18T21:54:16.861Z,101818.88
2022-10-18T21:56:43.721Z,101815.75
2022-10-18T21:59:16.412Z,101812.91
2022-10-18T22:01:46.075Z,101817.00
2022-10-18T22:04:21.843Z,101816.41
2022-10-18T22:06:49.312Z,101816.59
2022-10-18T22:09:19.451Z,101811.63
2022-10-18T22:11:51.849Z,101817.78
2022-10-18T22:14:19.626Z,101812.88
2022-10-18T22:16:48.435Z,101816.78
2022-10-18T22:19:19.758Z,101809.19
2022-10-18T22:21:57.542Z,101806.28
2022-10-18T22:24:24.034Z,101800.56
2022-10-18T22:26:51.154Z,101793.94
2022-10-18T22:29:19.714Z,101797.63
2022-10-18T22:31:52.130Z,101797.88
2022-10-18T22:34:24.307Z,101797.06
2022-10-18T22:36:51.065Z,101793.13
2022-10-18T22:39:17.723Z,101795.97
2022-10-18T22:41:44.340Z,101782.03
2022-10-18T22:44:12.396Z,101784.88
2022-10-18T22:46:39.856Z,101782.63
2022-10-18T22:49:07.139Z,101790.25
2022-10-18T22:54:02.036Z,101785.88
2022-10-18T22:56:28.556Z,101782.41
2022-10-18T22:59:02.151Z,101791.03
2022-10-18T23:01:28.654Z,101791.25
2022-10-18T23:03:56.755Z,101787.53
2022-10-18T23:06:29.232Z,101792.63
2022-10-18T23:08:57.749Z,101789.97
2022-10-18T23:11:26.095Z,101796.09
2022-10-18T23:13:52.697Z,101788.09
2022-10-18T23:16:20.269Z,101789.75
2022-10-18T23:18:55.278Z,101775.59
2022-10-18T23:21:24.403Z,101777.63
2022-10-18T23:23:52.393Z,101777.03
2022-10-18T23:26:26.782Z,101776.38
2022-10-18T23:28:57.190Z,101776.59
2022-10-18T23:31:27.004Z,101771.88
2022-10-18T23:34:03.199Z,101773.09
2022-10-18T23:36:30.753Z,101772.91
2022-10-18T23:38:57.842Z,101766.09
2022-10-18T23:41:25.359Z,101767.94
2022-10-18T23:43:55.078Z,101778.63
2022-10-18T23:46:22.747Z,101773.72
2022-10-18T23:48:52.580Z,101776.59
2022-10-18T23:51:19.170Z,101775.34
2022-10-18T23:53:48.627Z,101775.34
2022-10-18T23:56:19.067Z,101773.06
2022-10-18T23:58:46.363Z,101775.13
